Time;durP1;ratioP1;P1;durP2;ratioP2;P2;SDS_P1;SDS_P2;PMS_P1;PMS_P2;Temp;Humidity;BMP_temperature;BMP_pressure;BME280_temperature;BME280_humidity;BME280_pressure;Samples;Min_cycle;Max_cycle;Signal;HPM_P1;HPM_P2
2023/03/01 00:01:54;;;;;;;38.90;20.83;;;;;;;;;;5013265;28;20919;-61
2023/03/01 00:04:20;;;;;;;35.70;20.23;;;;;;;;;;5018961;28;20371;-61
2023/03/01 00:06:47;;;;;;;40.90;19.37;;;;;;;;;;5006511;28;20054;-61
2023/03/01 00:09:14;;;;;;;42.90;20.40;;;;;;;;;;5007681;28;20866;-61
2023/03/01 00:11:40;;;;;;;40.83;21.60;;;;;;;;;;5023695;28;20295;-62
2023/03/01 00:14:06;;;;;;;43.00;21.90;;;;;;;;;;5006686;28;20784;-61
2023/03/01 00:16:42;;;;;;;42.80;21.33;;;;;;;;;;5006109;28;20304;-61
2023/03/01 00:19:11;;;;;;;35.17;18.60;;;;;;;;;;5005769;28;20289;-61
2023/03/01 00:21:37;;;;;;;39.73;19.63;;;;;;;;;;5007150;28;20336;-61
2023/03/01 00:24:03;;;;;;;37.63;18.90;;;;;;;;;;5005763;28;20320;-61
2023/03/01 00:26:30;;;;;;;36.60;19.50;;;;;;;;;;5005793;28;20054;-61
2023/03/01 00:28:57;;;;;;;41.57;19.70;;;;;;;;;;5005678;28;20376;-61
2023/03/01 00:31:24;;;;;;;39.80;19.63;;;;;;;;;;5005958;28;20293;-61
2023/03/01 00:33:56;;;;;;;44.83;21.53;;;;;;;;;;5006409;28;20591;-61
2023/03/01 00:36:23;;;;;;;37.43;17.83;;;;;;;;;;5012825;28;20700;-61
2023/03/01 00:38:49;;;;;;;31.83;16.97;;;;;;;;;;5025864;28;20276;-61
2023/03/01 00:41:17;;;;;;;32.10;16.97;;;;;;;;;;5018677;28;20641;-61
2023/03/01 00:43:43;;;;;;;32.87;16.63;;;;;;;;;;5005311;28;20497;-61
2023/03/01 00:46:10;;;;;;;30.23;16.30;;;;;;;;;;5005044;28;20395;-61
2023/03/01 00:48:36;;;;;;;30.57;16.87;;;;;;;;;;5073561;28;20300;-61
2023/03/01 00:51:13;;;;;;;29.93;16.23;;;;;;;;;;5006156;28;20293;-61
2023/03/01 00:53:40;;;;;;;29.03;16.93;;;;;;;;;;5005889;28;20296;-61
2023/03/01 00:56:07;;;;;;;29.03;14.97;;;;;;;;;;5005863;28;20819;-61
2023/03/01 00:58:33;;;;;;;30.30;15.07;;;;;;;;;;5011754;28;20304;-61
2023/03/01 01:00:59;;;;;;;29.93;17.30;;;;;;;;;;5025043;28;20650;-61
2023/03/01 01:03:26;;;;;;;29.63;15.67;;;;;;;;;;5025517;28;20280;-61
2023/03/01 01:05:52;;;;;;;28.53;16.67;;;;;;;;;;5009976;28;20442;-61
2023/03/01 01:08:18;;;;;;;27.67;15.53;;;;;;;;;;5005454;28;20337;-62
2023/03/01 01:10:45;;;;;;;31.93;16.37;;;;;;;;;;5005183;28;20292;-61
2023/03/01 01:13:11;;;;;;;28.73;14.67;;;;;;;;;;5005851;28;20289;-61
2023/03/01 01:15:37;;;;;;;27.70;15.27;;;;;;;;;;5005183;28;20285;-61
2023/03/01 01:18:03;;;;;;;21.77;12.17;;;;;;;;;;5004821;28;20296;-61
2023/03/01 01:20:29;;;;;;;18.50;11.93;;;;;;;;;;5017772;28;20340;-61
2023/03/01 01:22:55;;;;;;;20.60;10.73;;;;;;;;;;5025220;28;20304;-62
2023/03/01 01:25:21;;;;;;;27.30;14.17;;;;;;;;;;5017876;28;20050;-61
2023/03/01 01:27:47;;;;;;;28.70;14.53;;;;;;;;;;5014544;28;20345;-61
2023/03/01 01:30:13;;;;;;;26.93;14.43;;;;;;;;;;5010436;28;20328;-61
2023/03/01 01:32:39;;;;;;;28.13;15.97;;;;;;;;;;5008250;28;20285;-61
2023/03/01 01:35:05;;;;;;;31.47;16.57;;;;;;;;;;5008834;28;20289;-61
2023/03/01 01:37:31;;;;;;;28.00;15.97;;;;;;;;;;5008748;28;20042;-61
2023/03/01 01:39:59;;;;;;;33.40;16.77;;;;;;;;;;5014312;28;20309;-61
2023/03/01 01:42:25;;;;;;;25.63;14.50;;;;;;;;;;5028382;28;20285;-61
2023/03/01 01:45:11;;;;;;;33.43;17.07;;;;;;;;;;5028150;28;20288;-61
2023/03/01 01:47:37;;;;;;;28.53;15.90;;;;;;;;;;5029815;28;20311;-61
2023/03/01 01:50:03;;;;;;;30.73;17.13;;;;;;;;;;5014709;28;20328;-61
2023/03/01 01:52:35;;;;;;;31.70;18.37;;;;;;;;;;5008574;28;20312;-61
2023/03/01 01:55:04;;;;;;;36.67;16.50;;;;;;;;;;5008243;28;20334;-61
2023/03/01 01:57:34;;;;;;;32.30;18.00;;;;;;;;;;5008167;28;20345;-62
2023/03/01 02:00:01;;;;;;;36.73;18.47;;;;;;;;;;5007619;28;20347;-61
2023/03/01 02:02:27;;;;;;;37.77;18.53;;;;;;;;;;5008616;28;20296;-61
2023/03/01 02:04:56;;;;;;;39.00;20.17;;;;;;;;;;5008062;28;20312;-61
2023/03/01 02:07:25;;;;;;;46.27;19.97;;;;;;;;;;5007873;28;20288;-61
2023/03/01 02:09:52;;;;;;;77.63;22.40;;;;;;;;;;5007861;28;20289;-60
2023/03/01 02:12:20;;;;;;;147.30;25.23;;;;;;;;;;5014273;28;20311;-60
2023/03/01 02:14:46;;;;;;;188.37;28.77;;;;;;;;;;5027989;28;20280;-60
2023/03/01 02:17:13;;;;;;;153.63;29.77;;;;;;;;;;5019125;28;20293;-60
2023/03/01 02:20:11;;;;;;;240.07;33.13;;;;;;;;;;5008040;28;20468;-60
2023/03/01 02:22:38;;;;;;;227.60;31.30;;;;;;;;;;5018558;28;21029;-60
2023/03/01 02:25:13;;;;;;;162.90;25.83;;;;;;;;;;5007871;28;20992;-60
2023/03/01 02:27:47;;;;;;;244.00;31.37;;;;;;;;;;5007662;28;20296;-60
2023/03/01 02:30:13;;;;;;;188.97;29.13;;;;;;;;;;5007523;28;20664;-60
2023/03/01 02:32:42;;;;;;;145.63;29.47;;;;;;;;;;5020039;28;20893;-60
2023/03/01 02:35:11;;;;;;;143.80;28.13;;;;;;;;;;5028271;28;20288;-60
2023/03/01 02:37:37;;;;;;;166.93;28.83;;;;;;;;;;5028329;28;21076;-61
2023/03/01 02:40:06;;;;;;;213.63;32.63;;;;;;;;;;5028252;28;20295;-60
2023/03/01 02:42:34;;;;;;;268.10;32.77;;;;;;;;;;5026723;28;20272;-60
2023/03/01 02:45:00;;;;;;;219.50;29.63;;;;;;;;;;5012519;28;20379;-60
2023/03/01 02:47:26;;;;;;;197.03;29.77;;;;;;;;;;5012482;28;20362;-60
2023/03/01 02:49:52;;;;;;;175.93;27.90;;;;;;;;;;5007796;28;20706;-60
2023/03/01 02:52:37;;;;;;;157.67;27.43;;;;;;;;;;5011171;28;20685;-60
2023/03/01 02:55:06;;;;;;;245.33;38.03;;;;;;;;;;5007482;28;20363;-60
2023/03/01 02:57:33;;;;;;;227.60;37.07;;;;;;;;;;5007578;28;20301;-60
2023/03/01 03:00:06;;;;;;;176.33;31.83;;;;;;;;;;5006951;28;21114;-60
2023/03/01 03:02:36;;;;;;;118.63;26.55;;;;;;;;;;5023588;28;20720;-60
2023/03/01 03:05:09;;;;;;;172.33;32.10;;;;;;;;;;5095186;28;20116;-60
2023/03/01 03:07:37;;;;;;;275.30;40.60;;;;;;;;;;5027414;28;20288;-60
2023/03/01 03:10:04;;;;;;;94.40;26.37;;;;;;;;;;5015821;28;20834;-60
2023/03/01 03:12:30;;;;;;;199.13;39.83;;;;;;;;;;5007407;28;20289;-60
2023/03/01 03:14:56;;;;;;;75.40;24.37;;;;;;;;;;5006510;28;20358;-60
2023/03/01 03:17:22;;;;;;;94.83;28.67;;;;;;;;;;5012101;28;20339;-60
2023/03/01 03:19:48;;;;;;;66.13;24.47;;;;;;;;;;5008045;28;20305;-60
2023/03/01 03:22:14;;;;;;;41.60;22.70;;;;;;;;;;5007208;28;20281;-60
2023/03/01 03:24:40;;;;;;;52.17;23.23;;;;;;;;;;5006927;28;20340;-60
2023/03/01 03:27:07;;;;;;;37.53;20.30;;;;;;;;;;5006502;28;20133;-60
2023/03/01 03:29:33;;;;;;;40.37;22.83;;;;;;;;;;5079853;28;20306;-60
2023/03/01 03:31:59;;;;;;;33.40;19.37;;;;;;;;;;5026175;28;20295;-60
2023/03/01 03:34:25;;;;;;;30.03;16.80;;;;;;;;;;5026452;28;20285;-60
2023/03/01 03:36:59;;;;;;;61.97;18.67;;;;;;;;;;5026080;28;20775;-60
2023/03/01 03:39:27;;;;;;;134.27;23.60;;;;;;;;;;5026650;27;20323;-60
2023/03/01 03:41:53;;;;;;;151.27;24.53;;;;;;;;;;5026926;27;20295;-60
2023/03/01 03:44:20;;;;;;;53.20;17.80;;;;;;;;;;5014302;28;20354;-61
2023/03/01 03:46:46;;;;;;;35.00;16.27;;;;;;;;;;5006234;28;20436;-60
2023/03/01 03:49:12;;;;;;;60.57;16.53;;;;;;;;;;5006600;28;20306;-60
2023/03/01 03:51:38;;;;;;;217.40;24.67;;;;;;;;;;5006174;28;20285;-60
2023/03/01 03:54:04;;;;;;;208.87;22.07;;;;;;;;;;5005411;28;20790;-60
2023/03/01 03:56:30;;;;;;;86.17;19.00;;;;;;;;;;5015347;28;20302;-60
2023/03/01 03:58:56;;;;;;;67.87;18.27;;;;;;;;;;5025952;28;20771;-60
2023/03/01 04:01:23;;;;;;;73.30;18.53;;;;;;;;;;5026063;28;20288;-60
2023/03/01 04:03:54;;;;;;;182.73;21.80;;;;;;;;;;5026154;28;20294;-60
2023/03/01 04:06:20;;;;;;;82.90;18.30;;;;;;;;;;5025961;28;20407;-61
2023/03/01 04:08:46;;;;;;;62.97;17.27;;;;;;;;;;5025597;28;20396;-61
2023/03/01 04:11:25;;;;;;;31.43;17.17;;;;;;;;;;5016214;28;20300;-61
2023/03/01 04:13:53;;;;;;;32.37;17.00;;;;;;;;;;5005990;28;20316;-61
2023/03/01 04:16:19;;;;;;;37.70;17.03;;;;;;;;;;5006098;28;20296;-61
2023/03/01 04:18:46;;;;;;;29.83;17.00;;;;;;;;;;5006620;28;20292;-61
2023/03/01 04:21:12;;;;;;;46.57;17.83;;;;;;;;;;5006176;28;20293;-61
2023/03/01 04:23:40;;;;;;;31.17;17.33;;;;;;;;;;5005821;28;20599;-61
2023/03/01 04:26:06;;;;;;;33.43;16.47;;;;;;;;;;5006337;28;20395;-61
2023/03/01 04:28:37;;;;;;;111.53;23.50;;;;;;;;;;5005928;28;20292;-61
2023/03/01 04:31:18;;;;;;;98.60;22.70;;;;;;;;;;5005504;28;20300;-61
2023/03/01 04:33:45;;;;;;;99.97;24.40;;;;;;;;;;5006094;28;20380;-61
2023/03/01 04:36:12;;;;;;;86.50;23.10;;;;;;;;;;5005926;28;20669;-61
2023/03/01 04:38:38;;;;;;;57.97;20.20;;;;;;;;;;5005039;28;20307;-60
2023/03/01 04:41:09;;;;;;;31.73;18.67;;;;;;;;;;5013142;28;20351;-61
2023/03/01 04:43:35;;;;;;;30.50;17.30;;;;;;;;;;5005831;28;20281;-61
2023/03/01 04:46:06;;;;;;;28.10;15.73;;;;;;;;;;5005303;28;20377;-61
2023/03/01 04:48:32;;;;;;;29.17;17.20;;;;;;;;;;5006042;28;20370;-61
2023/03/01 04:50:59;;;;;;;27.67;16.60;;;;;;;;;;5005719;28;20289;-61
2023/03/01 04:53:25;;;;;;;28.63;16.57;;;;;;;;;;5006096;28;20871;-61
2023/03/01 04:55:51;;;;;;;28.40;16.03;;;;;;;;;;5005979;28;20300;-61
2023/03/01 04:58:18;;;;;;;27.73;15.97;;;;;;;;;;5005239;28;20292;-61
2023/03/01 05:00:44;;;;;;;26.33;15.50;;;;;;;;;;5005896;28;20281;-61
2023/03/01 05:03:10;;;;;;;29.87;14.97;;;;;;;;;;5005585;28;20752;-61
2023/03/01 05:05:37;;;;;;;24.30;14.83;;;;;;;;;;5016737;28;20363;-61
2023/03/01 05:08:05;;;;;;;25.77;15.50;;;;;;;;;;5021054;28;20301;-61
2023/03/01 05:10:32;;;;;;;30.50;16.03;;;;;;;;;;5011641;28;20291;-61
2023/03/01 05:12:59;;;;;;;26.93;15.90;;;;;;;;;;5009241;28;20800;-61
2023/03/01 05:15:26;;;;;;;25.73;15.80;;;;;;;;;;5011782;28;20330;-61
2023/03/01 05:17:54;;;;;;;23.17;15.17;;;;;;;;;;5008945;28;20357;-60
2023/03/01 05:20:22;;;;;;;28.77;15.33;;;;;;;;;;5008642;28;20297;-61
2023/03/01 05:22:49;;;;;;;25.90;15.37;;;;;;;;;;5015061;28;20296;-61
2023/03/01 05:25:15;;;;;;;26.10;16.17;;;;;;;;;;5028343;28;20328;-61
2023/03/01 05:27:41;;;;;;;22.57;14.27;;;;;;;;;;5028410;28;20288;-61
2023/03/01 05:30:13;;;;;;;23.07;13.87;;;;;;;;;;5027726;28;20843;-61
2023/03/01 05:32:47;;;;;;;25.57;15.47;;;;;;;;;;5019160;28;20412;-61
2023/03/01 05:35:14;;;;;;;24.67;14.70;;;;;;;;;;5008154;28;20285;-61
2023/03/01 05:37:41;;;;;;;25.03;14.53;;;;;;;;;;5008288;28;20668;-61
2023/03/01 05:40:15;;;;;;;27.00;16.03;;;;;;;;;;5008757;28;20422;-61
2023/03/01 05:42:41;;;;;;;;;;;;;;;;;;5025427;28;20660;-61
2023/03/01 05:45:09;;;;;;;23.73;13.93;;;;;;;;;;5017806;28;19985;-61
2023/03/01 05:47:35;;;;;;;24.60;15.17;;;;;;;;;;5017290;28;20084;-61
2023/03/01 05:50:01;;;;;;;26.57;15.63;;;;;;;;;;5016724;28;20292;-61
2023/03/01 05:52:27;;;;;;;28.70;14.73;;;;;;;;;;5018544;28;20434;-61
2023/03/01 05:54:53;;;;;;;24.87;14.20;;;;;;;;;;5019707;28;20683;-61
2023/03/01 05:57:20;;;;;;;25.60;15.47;;;;;;;;;;5016682;28;20379;-61
2023/03/01 05:59:46;;;;;;;28.23;17.07;;;;;;;;;;5018369;28;20799;-62
2023/03/01 06:02:12;;;;;;;25.77;15.67;;;;;;;;;;5084392;28;20308;-61
2023/03/01 06:04:38;;;;;;;27.33;15.63;;;;;;;;;;5015322;28;20340;-62
2023/03/01 06:07:04;;;;;;;28.90;15.97;;;;;;;;;;5017131;28;20370;-62
2023/03/01 06:09:30;;;;;;;30.83;17.23;;;;;;;;;;5018162;28;20045;-62
2023/03/01 06:11:56;;;;;;;29.07;16.90;;;;;;;;;;5017014;28;20338;-62
2023/03/01 06:14:22;;;;;;;31.57;17.73;;;;;;;;;;5015995;28;20784;-62
2023/03/01 06:16:48;;;;;;;28.73;17.33;;;;;;;;;;5017609;28;20667;-62
2023/03/01 06:19:14;;;;;;;27.07;15.53;;;;;;;;;;5016453;28;20288;-62
2023/03/01 06:21:40;;;;;;;32.17;17.27;;;;;;;;;;5016395;28;20287;-62
2023/03/01 06:24:07;;;;;;;29.17;15.97;;;;;;;;;;5018091;28;20284;-60
2023/03/01 06:26:33;;;;;;;33.17;18.57;;;;;;;;;;5016744;28;20316;-61
2023/03/01 06:28:59;;;;;;;31.77;18.30;;;;;;;;;;5015294;28;20796;-62
2023/03/01 06:31:25;;;;;;;31.90;18.20;;;;;;;;;;5016697;28;20292;-62
2023/03/01 06:33:51;;;;;;;28.70;16.37;;;;;;;;;;5015382;28;20304;-62
2023/03/01 06:36:18;;;;;;;32.33;17.27;;;;;;;;;;5016102;28;20384;-61
2023/03/01 06:38:44;;;;;;;29.37;17.03;;;;;;;;;;5013278;28;20052;-61
2023/03/01 06:41:10;;;;;;;33.03;18.27;;;;;;;;;;5015405;28;20297;-61
2023/03/01 06:43:36;;;;;;;28.53;17.73;;;;;;;;;;5016827;28;20288;-61
2023/03/01 06:46:06;;;;;;;35.30;18.27;;;;;;;;;;5017746;28;20468;-62
2023/03/01 06:48:33;;;;;;;33.80;18.43;;;;;;;;;;5015811;28;20664;-61
2023/03/01 06:51:00;;;;;;;34.97;19.60;;;;;;;;;;5016014;28;20288;-61
2023/03/01 06:53:27;;;;;;;32.50;17.50;;;;;;;;;;5017864;28;20296;-61
2023/03/01 06:55:56;;;;;;;29.80;17.27;;;;;;;;;;5012091;28;20412;-61
2023/03/01 06:58:22;;;;;;;31.33;17.13;;;;;;;;;;5011260;28;20315;-61
2023/03/01 07:00:48;;;;;;;30.17;16.47;;;;;;;;;;5082532;28;20639;-62
2023/03/01 07:03:15;;;;;;;33.40;18.37;;;;;;;;;;5016550;28;20276;-61
2023/03/01 07:05:41;;;;;;;31.83;18.73;;;;;;;;;;5014180;28;20305;-62
2023/03/01 07:08:07;;;;;;;35.67;19.70;;;;;;;;;;5014417;28;20287;-62
2023/03/01 07:10:33;;;;;;;34.00;18.67;;;;;;;;;;5014155;28;20307;-62
2023/03/01 07:12:59;;;;;;;34.50;20.27;;;;;;;;;;5015332;28;20285;-62
2023/03/01 07:15:26;;;;;;;36.07;19.77;;;;;;;;;;5014529;28;20314;-62
2023/03/01 07:17:52;;;;;;;40.80;20.50;;;;;;;;;;5013789;28;20411;-62
2023/03/01 07:20:22;;;;;;;41.07;22.57;;;;;;;;;;5015095;28;20883;-61
2023/03/01 07:22:48;;;;;;;43.23;22.27;;;;;;;;;;5017240;28;20301;-62
2023/03/01 07:25:14;;;;;;;51.50;25.30;;;;;;;;;;5005856;28;20402;-62
2023/03/01 07:27:40;;;;;;;44.47;23.53;;;;;;;;;;5006684;28;20333;-62
2023/03/01 07:30:06;;;;;;;48.70;25.37;;;;;;;;;;5005781;28;20346;-62
2023/03/01 07:32:32;;;;;;;46.67;23.70;;;;;;;;;;5006076;28;20314;-62
2023/03/01 07:34:58;;;;;;;44.80;22.33;;;;;;;;;;5006508;28;20281;-62
2023/03/01 07:37:24;;;;;;;45.70;24.20;;;;;;;;;;5006555;28;20042;-62
2023/03/01 07:39:50;;;;;;;46.57;23.03;;;;;;;;;;5006167;28;20327;-62
2023/03/01 07:42:17;;;;;;;44.97;23.87;;;;;;;;;;5005705;28;20321;-62
2023/03/01 07:44:42;;;;;;;44.80;23.70;;;;;;;;;;5006209;28;20293;-61
2023/03/01 07:47:08;;;;;;;50.70;24.00;;;;;;;;;;5006174;28;20528;-61
2023/03/01 07:49:35;;;;;;;47.10;24.80;;;;;;;;;;5009350;28;20041;-61
2023/03/01 07:52:01;;;;;;;51.20;26.27;;;;;;;;;;5013206;28;20508;-61
2023/03/01 07:54:27;;;;;;;50.03;27.27;;;;;;;;;;5088674;28;20304;-61
2023/03/01 07:56:54;;;;;;;42.03;23.27;;;;;;;;;;5023902;28;20292;-61
2023/03/01 07:59:20;;;;;;;49.00;25.40;;;;;;;;;;5023890;28;20703;-61
2023/03/01 08:01:46;;;;;;;49.00;25.47;;;;;;;;;;5014943;28;20317;-61
2023/03/01 08:04:12;;;;;;;51.37;27.10;;;;;;;;;;5020177;28;20080;-61
2023/03/01 08:06:38;;;;;;;48.27;26.83;;;;;;;;;;5023889;28;20343;-61
2023/03/01 08:09:04;;;;;;;66.93;29.87;;;;;;;;;;5016095;28;20046;-61
2023/03/01 08:11:30;;;;;;;57.63;29.37;;;;;;;;;;5024444;28;20304;-61
2023/03/01 08:13:57;;;;;;;69.17;32.87;;;;;;;;;;5024989;28;20311;-61
2023/03/01 08:16:23;;;;;;;63.87;34.07;;;;;;;;;;5019937;28;20284;-61
2023/03/01 08:18:49;;;;;;;59.07;31.73;;;;;;;;;;5024948;28;20332;-61
2023/03/01 08:21:17;;;;;;;80.53;39.07;;;;;;;;;;5023113;28;20312;-62
2023/03/01 08:23:43;;;;;;;73.33;36.77;;;;;;;;;;5012117;28;20303;-61
2023/03/01 08:26:18;;;;;;;68.93;35.07;;;;;;;;;;5014831;28;20396;-61
2023/03/01 08:28:44;;;;;;;75.53;36.97;;;;;;;;;;5024076;28;20391;-61
2023/03/01 08:31:15;;;;;;;83.33;39.90;;;;;;;;;;5020893;28;20440;-61
2023/03/01 08:33:41;;;;;;;65.87;35.93;;;;;;;;;;5002775;28;20380;-61
2023/03/01 08:36:07;;;;;;;68.97;35.63;;;;;;;;;;5018709;28;20379;-62
2023/03/01 08:38:34;;;;;;;70.57;34.20;;;;;;;;;;5023661;28;20081;-61
2023/03/01 08:41:01;;;;;;;72.70;37.53;;;;;;;;;;5030302;28;20333;-61
2023/03/01 08:43:27;;;;;;;66.10;33.10;;;;;;;;;;5028870;28;20379;-61
2023/03/01 08:45:53;;;;;;;56.53;29.53;;;;;;;;;;5028710;28;20330;-61
2023/03/01 08:48:19;;;;;;;60.20;31.77;;;;;;;;;;5015587;28;20344;-61
2023/03/01 08:50:45;;;;;;;60.17;32.87;;;;;;;;;;5015636;28;20292;-61
2023/03/01 08:53:11;;;;;;;63.17;32.63;;;;;;;;;;5011100;28;20292;-61
2023/03/01 08:55:37;;;;;;;63.60;32.77;;;;;;;;;;5013925;28;20647;-61
2023/03/01 08:58:03;;;;;;;59.93;32.97;;;;;;;;;;5022693;28;20297;-61
2023/03/01 09:00:29;;;;;;;68.47;31.70;;;;;;;;;;5011699;28;20288;-61
2023/03/01 09:02:55;;;;;;;61.57;33.43;;;;;;;;;;5011247;28;20289;-61
2023/03/01 09:05:21;;;;;;;58.90;32.57;;;;;;;;;;5012063;28;20304;-61
2023/03/01 09:07:47;;;;;;;56.73;30.60;;;;;;;;;;5011968;28;20292;-61
2023/03/01 09:10:13;;;;;;;52.73;29.23;;;;;;;;;;5011422;28;20300;-61
2023/03/01 09:12:39;;;;;;;52.20;29.17;;;;;;;;;;5078761;28;20287;-61
2023/03/01 09:15:06;;;;;;;54.93;27.67;;;;;;;;;;5011637;28;20288;-61
2023/03/01 09:17:32;;;;;;;49.90;27.57;;;;;;;;;;5011099;28;20081;-61
2023/03/01 09:19:59;;;;;;;50.47;27.10;;;;;;;;;;5011250;28;20303;-61
2023/03/01 09:22:25;;;;;;;58.40;32.10;;;;;;;;;;5011346;28;20296;-61
2023/03/01 09:24:51;;;;;;;87.43;42.70;;;;;;;;;;5011551;28;20297;-61
2023/03/01 09:27:18;;;;;;;77.90;41.03;;;;;;;;;;5010117;28;20305;-61
2023/03/01 09:29:45;;;;;;;58.50;32.67;;;;;;;;;;5028678;28;20065;-61
2023/03/01 09:32:11;;;;;;;47.93;32.10;;;;;;;;;;5031052;28;20304;-61
2023/03/01 09:35:00;;;;;;;58.57;36.43;;;;;;;;;;5019112;28;20057;-61
2023/03/01 09:37:23;;;;;;;23.70;15.00;;;;;;;;;;5011049;28;20046;-61
2023/03/01 09:39:49;;;;;;;17.10;14.37;;;;;;;;;;5010810;28;20046;-61
2023/03/01 09:42:16;;;;;;;15.00;10.90;;;;;;;;;;5010636;28;20528;-61
2023/03/01 09:44:45;;;;;;;12.23;7.93;;;;;;;;;;5011022;28;20556;-61
2023/03/01 09:47:30;;;;;;;9.90;6.00;;;;;;;;;;5011178;28;20064;-61
2023/03/01 09:50:17;;;;;;;9.93;5.57;;;;;;;;;;5010514;28;20048;-61
2023/03/01 09:52:43;;;;;;;7.87;5.53;;;;;;;;;;5019153;28;20067;-61
2023/03/01 09:55:13;;;;;;;7.27;4.67;;;;;;;;;;5022109;28;20095;-61
2023/03/01 09:57:56;;;;;;;7.00;3.50;;;;;;;;;;5017711;28;20085;-61
2023/03/01 10:00:25;;;;;;;6.93;3.73;;;;;;;;;;5022226;28;20443;-62
2023/03/01 10:03:10;;;;;;;6.47;3.30;;;;;;;;;;5021875;28;20060;-62
2023/03/01 10:05:53;;;;;;;8.60;4.33;;;;;;;;;;5025578;28;20053;-62
2023/03/01 10:08:25;;;;;;;5.95;4.18;;;;;;;;;;5011374;28;20057;-62
2023/03/01 10:10:52;;;;;;;7.50;3.67;;;;;;;;;;5021089;28;20106;-62
2023/03/01 10:13:48;;;;;;;8.97;3.80;;;;;;;;;;5019917;28;20660;-59
2023/03/01 10:16:41;;;;;;;5.93;3.90;;;;;;;;;;5021602;28;20071;-60
2023/03/01 10:19:11;;;;;;;7.27;4.07;;;;;;;;;;5032353;28;20098;-60
2023/03/01 10:21:39;;;;;;;8.03;3.93;;;;;;;;;;5015723;28;20095;-60
2023/03/01 10:24:11;;;;;;;9.03;4.80;;;;;;;;;;5014132;28;20042;-60
2023/03/01 10:26:49;;;;;;;7.80;4.03;;;;;;;;;;5026506;28;20128;-61
2023/03/01 10:29:16;;;;;;;7.30;3.20;;;;;;;;;;5013773;28;20050;-61
2023/03/01 10:31:46;;;;;;;4.60;3.10;;;;;;;;;;5025028;28;20499;-61
2023/03/01 10:34:17;;;;;;;6.23;3.07;;;;;;;;;;5010218;28;20087;-61
2023/03/01 10:36:44;;;;;;;5.00;3.40;;;;;;;;;;5020945;28;20042;-60
2023/03/01 10:39:12;;;;;;;5.60;3.40;;;;;;;;;;5016493;28;20413;-60
2023/03/01 10:41:47;;;;;;;5.77;3.10;;;;;;;;;;5009428;28;20117;-60
2023/03/01 10:44:33;;;;;;;5.93;3.37;;;;;;;;;;5008192;28;21142;-60
2023/03/01 10:47:01;;;;;;;4.97;3.10;;;;;;;;;;5007169;28;20279;-61
2023/03/01 10:49:27;;;;;;;5.20;3.33;;;;;;;;;;5010575;28;20133;-61
2023/03/01 10:51:54;;;;;;;5.20;2.70;;;;;;;;;;5025235;28;20240;-61
2023/03/01 10:54:20;;;;;;;4.80;3.30;;;;;;;;;;5026025;28;20527;-61
2023/03/01 10:56:48;;;;;;;6.57;3.70;;;;;;;;;;5023740;28;20065;-61
2023/03/01 10:59:22;;;;;;;6.20;3.43;;;;;;;;;;5007935;28;20050;-61
2023/03/01 11:02:02;;;;;;;5.27;3.17;;;;;;;;;;5023860;28;20053;-61
2023/03/01 11:04:28;;;;;;;4.10;3.10;;;;;;;;;;5022221;28;20169;-61
2023/03/01 11:07:01;;;;;;;7.70;3.60;;;;;;;;;;5018297;28;20105;-61
2023/03/01 11:09:37;;;;;;;7.43;3.90;;;;;;;;;;5013955;28;20057;-61
2023/03/01 11:12:03;;;;;;;5.50;3.07;;;;;;;;;;5007560;28;20042;-61
2023/03/01 11:14:49;;;;;;;6.03;3.27;;;;;;;;;;5024869;28;20472;-61
2023/03/01 11:17:20;;;;;;;6.60;3.43;;;;;;;;;;5024728;28;21002;-60
2023/03/01 11:20:06;;;;;;;4.93;3.47;;;;;;;;;;5022019;28;20045;-60
2023/03/01 11:22:33;;;;;;;5.23;2.83;;;;;;;;;;5018789;28;20038;-61
2023/03/01 11:25:00;;;;;;;5.87;3.57;;;;;;;;;;5009045;28;20102;-60
2023/03/01 11:27:28;;;;;;;5.90;3.37;;;;;;;;;;5026997;28;20140;-61
2023/03/01 11:30:20;;;;;;;6.27;4.33;;;;;;;;;;5025826;28;20489;-62
2023/03/01 11:32:51;;;;;;;7.20;4.20;;;;;;;;;;5010969;28;20136;-61
2023/03/01 11:35:26;;;;;;;5.77;3.70;;;;;;;;;;5012310;28;20506;-61
2023/03/01 11:37:52;;;;;;;10.33;4.23;;;;;;;;;;5025813;28;20049;-61
2023/03/01 11:40:26;;;;;;;8.77;4.83;;;;;;;;;;5019180;28;20049;-61
2023/03/01 11:43:11;;;;;;;9.73;4.57;;;;;;;;;;5019155;28;20044;-61
2023/03/01 11:45:44;;;;;;;8.97;5.10;;;;;;;;;;5014292;28;20412;-61
2023/03/01 11:48:20;;;;;;;7.07;4.78;;;;;;;;;;5019027;28;20046;-61
2023/03/01 11:50:47;;;;;;;6.43;4.67;;;;;;;;;;5005963;28;20046;-62
2023/03/01 11:53:23;;;;;;;6.73;4.57;;;;;;;;;;5022280;28;20041;-61
2023/03/01 11:56:01;;;;;;;6.83;4.47;;;;;;;;;;5024064;28;20129;-61
2023/03/01 11:58:27;;;;;;;6.57;4.17;;;;;;;;;;5071266;28;20058;-62
2023/03/01 12:01:15;;;;;;;8.47;4.60;;;;;;;;;;5004203;28;20053;-61
2023/03/01 12:04:01;;;;;;;7.27;4.43;;;;;;;;;;5008641;28;20394;-62
2023/03/01 12:06:40;;;;;;;7.27;4.10;;;;;;;;;;5004334;28;20057;-61
2023/03/01 12:09:12;;;;;;;7.40;3.87;;;;;;;;;;5005735;28;20038;-61
2023/03/01 12:11:41;;;;;;;6.30;4.00;;;;;;;;;;5006144;28;20049;-61
2023/03/01 12:14:26;;;;;;;7.07;4.43;;;;;;;;;;5005011;28;20489;-62
2023/03/01 12:17:04;;;;;;;6.83;3.90;;;;;;;;;;5010716;28;20040;-61
2023/03/01 12:19:30;;;;;;;6.13;4.50;;;;;;;;;;5024478;28;20114;-62
2023/03/01 12:22:14;;;;;;;6.90;4.63;;;;;;;;;;5025026;28;20057;-62
2023/03/01 12:24:55;;;;;;;8.53;4.33;;;;;;;;;;5025187;28;20599;-62
2023/03/01 12:27:27;;;;;;;7.03;4.13;;;;;;;;;;5025463;28;20416;-62
2023/03/01 12:30:00;;;;;;;6.93;5.03;;;;;;;;;;5024782;28;20067;-61
2023/03/01 12:32:35;;;;;;;7.33;5.03;;;;;;;;;;5012527;28;20435;-62
2023/03/01 12:35:16;;;;;;;7.93;5.10;;;;;;;;;;5073073;28;20132;-61
2023/03/01 12:38:01;;;;;;;6.43;4.37;;;;;;;;;;5005005;28;20038;-62
2023/03/01 12:40:39;;;;;;;7.33;5.03;;;;;;;;;;5005250;28;20053;-62
2023/03/01 12:43:08;;;;;;;9.30;5.97;;;;;;;;;;5005321;28;20057;-62
2023/03/01 12:45:43;;;;;;;7.70;4.80;;;;;;;;;;5005174;28;20049;-62
2023/03/01 12:48:18;;;;;;;6.77;5.27;;;;;;;;;;5005061;28;20057;-62
2023/03/01 12:50:48;;;;;;;6.67;4.60;;;;;;;;;;5005499;28;20084;-62
2023/03/01 12:53:20;;;;;;;7.73;5.00;;;;;;;;;;5004975;28;20066;-62
2023/03/01 12:55:47;;;;;;;8.98;5.35;;;;;;;;;;5005290;28;20053;-61
2023/03/01 12:58:16;;;;;;;7.97;4.30;;;;;;;;;;5005152;28;20382;-62
2023/03/01 13:00:48;;;;;;;6.70;5.10;;;;;;;;;;5004658;28;20052;-62
2023/03/01 13:03:30;;;;;;;6.27;4.30;;;;;;;;;;5004895;28;20077;-61
2023/03/01 13:06:08;;;;;;;5.80;4.73;;;;;;;;;;5004996;28;20530;-61
2023/03/01 13:08:44;;;;;;;8.60;4.30;;;;;;;;;;5005308;28;20050;-61
2023/03/01 13:11:28;;;;;;;11.97;7.97;;;;;;;;;;5005171;28;20049;-61
2023/03/01 13:14:14;;;;;;;6.73;4.17;;;;;;;;;;5072476;28;20057;-61
2023/03/01 13:16:48;;;;;;;13.43;5.93;;;;;;;;;;5018023;28;20048;-61
2023/03/01 13:19:18;;;;;;;8.17;4.53;;;;;;;;;;5024441;28;20687;-61
2023/03/01 13:21:45;;;;;;;9.83;5.47;;;;;;;;;;5024844;28;20053;-61
2023/03/01 13:24:43;;;;;;;7.63;4.87;;;;;;;;;;5024542;28;20048;-61
2023/03/01 13:27:11;;;;;;;6.47;4.60;;;;;;;;;;5028343;28;20144;-61
2023/03/01 13:29:45;;;;;;;7.60;4.90;;;;;;;;;;5027200;28;20090;-61
2023/03/01 13:32:20;;;;;;;9.17;5.63;;;;;;;;;;5008222;28;20420;-62
2023/03/01 13:34:48;;;;;;;6.53;4.33;;;;;;;;;;5008236;28;20050;-61
2023/03/01 13:37:21;;;;;;;7.80;5.17;;;;;;;;;;5008041;28;20097;-61
2023/03/01 13:39:47;;;;;;;6.77;5.30;;;;;;;;;;5008194;28;20417;-61
2023/03/01 13:42:33;;;;;;;9.50;5.03;;;;;;;;;;5007534;28;20052;-61
2023/03/01 13:45:00;;;;;;;7.93;5.87;;;;;;;;;;5008133;28;20092;-61
2023/03/01 13:47:27;;;;;;;7.23;5.30;;;;;;;;;;5010863;28;20082;-61
2023/03/01 13:49:57;;;;;;;7.47;5.40;;;;;;;;;;5027575;28;20049;-62
2023/03/01 13:52:42;;;;;;;7.00;4.90;;;;;;;;;;5026951;28;20057;-62
2023/03/01 13:55:16;;;;;;;8.70;4.90;;;;;;;;;;5027711;28;20128;-61
2023/03/01 13:57:44;;;;;;;9.17;4.40;;;;;;;;;;5027470;28;20045;-61
2023/03/01 14:00:25;;;;;;;6.67;4.97;;;;;;;;;;5027574;28;20049;-61
2023/03/01 14:03:02;;;;;;;7.53;5.37;;;;;;;;;;5023228;28;20056;-61
2023/03/01 14:05:28;;;;;;;7.80;4.63;;;;;;;;;;5006880;28;20413;-62
2023/03/01 14:07:54;;;;;;;7.33;4.27;;;;;;;;;;5009965;28;20048;-62
2023/03/01 14:10:21;;;;;;;7.10;5.00;;;;;;;;;;5007653;28;20042;-62
2023/03/01 14:13:06;;;;;;;8.50;4.93;;;;;;;;;;5007142;28;20046;-61
2023/03/01 14:15:51;;;;;;;7.20;5.07;;;;;;;;;;5007616;28;20045;-61
2023/03/01 14:18:24;;;;;;;6.80;5.27;;;;;;;;;;5009585;28;20049;-62
2023/03/01 14:20:52;;;;;;;7.67;5.77;;;;;;;;;;5019355;28;20141;-61
2023/03/01 14:23:20;;;;;;;7.57;5.43;;;;;;;;;;5026369;28;20041;-61
2023/03/01 14:25:50;;;;;;;7.27;4.87;;;;;;;;;;5025101;28;20051;-61
2023/03/01 14:28:21;;;;;;;7.87;5.67;;;;;;;;;;5014239;28;20087;-61
2023/03/01 14:30:48;;;;;;;7.37;5.97;;;;;;;;;;5022607;28;20152;-61
2023/03/01 14:33:20;;;;;;;9.77;5.87;;;;;;;;;;5025331;28;20489;-61
2023/03/01 14:36:05;;;;;;;9.03;5.70;;;;;;;;;;5023123;28;20487;-61
2023/03/01 14:38:44;;;;;;;8.07;6.00;;;;;;;;;;5018328;28;20057;-61